Flight Track Log - Related Links

Times and Time Zones

All times are in EDT time to prevent confusion due to time zone crossing. See the AAL1361 flight status page for this flight to view local times or setup timezone preferences in your user account.

Time Position Orientation Groundspeed Altitude Reporting Facility
EDT Latitude Longitude Course Direction KTS MPH feet Rate Location/Type
Tue 08:14:52 AM 36.1500 -86.7450 280° West 211 243 2,500  Level FlightAware ADS-B
Tue 08:15:07 AM 36.1550 -86.7640 288° West 232 267 2,900 1,733 Climbing FlightAware ADS-B
Tue 08:15:37 AM 36.1650 -86.8040 287° West 264 304 3,800 2,000 Climbing FlightAware ADS-B
Tue 08:15:52 AM 36.1710 -86.8250 289° West 270 311 4,400 3,150 Climbing FlightAware ADS-B
Tue 08:16:17 AM 36.1800 -86.8630 286° West 266 306 5,900 3,164 Climbing FlightAware ADS-B
Tue 08:16:47 AM 36.1920 -86.9080 288° West 276 318 7,300 2,800 Climbing FlightAware ADS-B
Tue 08:17:02 AM 36.1970 -86.9290 286° West 276 318 8,000 3,000 Climbing FlightAware ADS-B
Tue 08:17:27 AM 36.2070 -86.9680 288° West 277 319 9,300 2,850 Climbing FlightAware ADS-B
Tue 08:17:42 AM 36.2120 -86.9890 286° West 280 322 9,900 1,527 Climbing FlightAware ADS-B
Tue 08:18:22 AM 36.2290 -87.0550 288° West 318 366 10,700 1,482 Climbing FlightAware ADS-B
Tue 08:19:07 AM 36.2510 -87.1420 287° West 358 412 12,000 2,118 Climbing FlightAware ADS-B
Tue 08:19:47 AM 36.2690 -87.2180 286° West 365 420 13,700 2,753 Climbing FlightAware ADS-B
Tue 08:20:32 AM 36.2860 -87.3150 282° West 377 434 15,900 2,612 Climbing FlightAware ADS-B
Tue 08:21:12 AM 36.2990 -87.3960 281° West 388 447 17,400 2,325 Climbing FlightAware ADS-B
Tue 08:21:52 AM 36.3130 -87.4900 280° West 403 464 19,000 2,259 Climbing FlightAware ADS-B
Tue 08:22:37 AM 36.3120 -87.5930 269° West 419 482 20,600 2,329 Climbing FlightAware ADS-B
Tue 08:23:17 AM 36.3070 -87.6900 266° West 420 483 22,300 2,475 Climbing FlightAware ADS-B
Tue 08:23:57 AM 36.3020 -87.7870 266° West 421 484 23,900 2,188 Climbing FlightAware ADS-B
Tue 08:24:42 AM 36.2960 -87.8970 266° West 425 489 25,400 1,725 Climbing FlightAware ADS-B
Tue 08:25:17 AM 36.2920 -87.9730 266° West 429 494 26,200 600 Climbing FlightAware ADS-B
Tue 08:26:02 AM 36.2860 -88.0750 266° West 429 494 26,200  Level FlightAware ADS-B
Tue 08:26:42 AM 36.2820 -88.1590 267° West 429 494 26,200  Level FlightAware ADS-B
Tue 08:27:32 AM 36.2760 -88.2630 266° West 429 494 26,200 2,343 Level FlightAware ADS-B
Tue 08:28:27 AM 36.2660 -88.4550 266° West 449 517 30,300 2,589 Climbing FlightAware ADS-B
Tue 08:29:07 AM 36.2610 -88.5420 266° West 449 517 30,300 2,175 Level FlightAware ADS-B
Tue 08:29:47 AM 36.2560 -88.6590 267° West 437 503 33,200 2,188 Climbing FlightAware ADS-B
Tue 08:30:32 AM 36.2500 -88.7630 266° West 437 503 33,400 141 Climbing FlightAware ADS-B
Tue 08:31:12 AM 36.2450 -88.8480 266° West 437 503 33,400  Level FlightAware ADS-B
Tue 08:32:02 AM 36.2390 -88.9540 266° West 437 503 33,400  Level FlightAware ADS-B
Tue 08:32:42 AM 36.2340 -89.0390 266° West 437 503 33,400  Level FlightAware ADS-B
Tue 08:33:22 AM 36.2300 -89.1240 267° West 437 503 33,400  Level FlightAware ADS-B
Tue 08:34:02 AM 36.2250 -89.2090 266° West 437 503 33,400  Level FlightAware ADS-B
Tue 08:34:42 AM 36.2200 -89.2940 266° West 437 503 33,400  Level FlightAware ADS-B
Tue 08:35:32 AM 36.2140 -89.4000 266° West 437 503 33,400  Level FlightAware ADS-B
Tue 08:36:12 AM 36.2090 -89.4850 266° West 437 503 33,400  Level FlightAware ADS-B
Tue 08:36:52 AM 36.2040 -89.5700 266° West 437 503 33,400  Level FlightAware ADS-B
Tue 08:37:32 AM 36.2000 -89.6550 267° West 437 503 33,400  Level FlightAware ADS-B
Tue 08:38:12 AM 36.1950 -89.7400 266° West 437 503 33,400  Level FlightAware ADS-B
Tue 08:39:02 AM 36.1890 -89.8470 266° West 437 503 33,400  Level FlightAware ADS-B
Tue 08:39:42 AM 36.1840 -89.9320 266° West 437 503 33,400 2,706 Level FlightAware ADS-B
Tue 08:40:44 AM 36.1544 -90.2850 266° West 443 510 38,000 2,262 Climbing Memphis Center
Tue 08:41:44 AM 36.1439 -90.4342 265° West 443 510 38,000  Level Memphis Center
Tue 08:42:44 AM 36.1356 -90.5806 266° West 443 510 38,000  Level Memphis Center
Tue 08:43:44 AM 36.1225 -90.7269 264° West 443 510 38,000  Level Memphis Center
Tue 08:44:44 AM 36.1117 -90.8836 265° West 437 503 38,000  Level Memphis Center
Tue 08:45:44 AM 36.1089 -91.0300 269° West 437 503 38,000  Level Memphis Center
Tue 08:46:44 AM 36.1183 -91.1714 275° West 426 490 38,000  Level Memphis Center
Tue 08:47:44 AM 36.1258 -91.3156 274° West 420 483 38,000  Level Memphis Center
Tue 08:48:44 AM 36.1331 -91.4594 274° West 420 483 38,000  Level Memphis Center
Tue 08:49:44 AM 36.1400 -91.5983 274° West 420 483 38,000  Level Memphis Center
Tue 08:50:44 AM 36.1469 -91.7372 274° West 420 483 38,000  Level Memphis Center
Tue 08:51:44 AM 36.1536 -91.8786 273° West 420 483 38,000  Level Memphis Center
Tue 08:52:44 AM 36.1600 -92.0178 273° West 420 483 38,000  Level Memphis Center
Tue 08:53:44 AM 36.1728 -92.1594 276° West 420 483 38,000  Level Memphis Center
Tue 08:54:44 AM 36.1789 -92.2983 273° West 420 483 38,000  Level Memphis Center
Tue 08:55:44 AM 36.1831 -92.4425 272° West 420 483 38,000  Level Memphis Center
Tue 08:56:44 AM 36.1908 -92.5867 274° West 420 483 38,000  Level Memphis Center
Tue 08:57:44 AM 36.1986 -92.7308 274° West 420 483 38,000  Level Memphis Center
Tue 08:58:44 AM 36.2042 -92.8750 273° West 426 490 38,000  Level Memphis Center
Tue 08:59:44 AM 36.2075 -93.0217 272° West 425 489 38,000  Level Memphis Center
Tue 09:00:44 AM 36.2144 -93.1686 273° West 430 495 38,000  Level Memphis Center
Tue 09:01:44 AM 36.2194 -93.3156 272° West 430 495 38,000  Level Memphis Center
Tue 09:02:44 AM 36.2222 -93.4597 271° West 430 495 38,000  Level Memphis Center
Tue 09:03:44 AM 36.2269 -93.6039 272° West 425 489 38,000  Level Memphis Center
Tue 09:04:44 AM 36.2339 -93.7378 274° West 425 489 38,000  Level Memphis Center
Tue 09:05:44 AM 36.2381 -93.8847 272° West 425 489 38,000  Level Memphis Center
Tue 09:06:44 AM 36.2442 -94.0292 273° West 425 489 38,000  Level Memphis Center
Tue 09:07:44 AM 36.2461 -94.1733 271° West 425 489 38,000  Level Memphis Center
Tue 09:08:44 AM 36.2439 -94.3147 269° West 419 482 38,000  Level Memphis Center
Tue 09:10:30 AM 36.2386 -94.5706 269° West 416 479 38,000  Level Kansas City Center
Tue 09:11:32 AM 36.2358 -94.7153 269° West 417 480 38,000  Level Kansas City Center
Tue 09:12:34 AM 36.2322 -94.8592 268° West 417 480 38,000  Level Kansas City Center
Tue 09:13:35 AM 36.2283 -95.0036 268° West 417 480 38,000  Level Kansas City Center
Tue 09:14:37 AM 36.2225 -95.1628 267° West 415 478 38,000  Level Kansas City Center
Tue 09:20:42 AM 36.1970 -96.0500 267° West 418 481 38,000  Level FlightAware ADS-B
Tue 09:21:27 AM 36.1940 -96.1550 268° West 416 479 38,000  Level FlightAware ADS-B
Tue 09:22:22 AM 36.1890 -96.2890 267° West 415 478 38,000  Level FlightAware ADS-B
Tue 09:23:02 AM 36.1850 -96.3840 267° West 415 478 38,000  Level FlightAware ADS-B
Tue 09:23:47 AM 36.1820 -96.4870 268° West 416 479 38,000  Level FlightAware ADS-B
Tue 09:24:32 AM 36.1780 -96.5960 267° West 417 480 38,000  Level FlightAware ADS-B
Tue 09:25:12 AM 36.1750 -96.6930 268° West 419 482 38,000  Level FlightAware ADS-B
Tue 09:25:57 AM 36.1700 -96.8010 267° West 420 483 38,000  Level FlightAware ADS-B
Tue 09:26:37 AM 36.1660 -96.8950 267° West 421 484 38,000  Level FlightAware ADS-B
Tue 09:27:12 AM 36.1630 -96.9790 267° West 422 486 38,000  Level FlightAware ADS-B
Tue 09:28:02 AM 36.1580 -97.1020 267° West 422 486 38,000  Level FlightAware ADS-B
Tue 09:28:42 AM 36.1540 -97.1890 267° West 422 486 38,000  Level FlightAware ADS-B
Tue 09:29:22 AM 36.1510 -97.2710 267° West 422 486 38,000  Level FlightAware ADS-B
Tue 09:30:07 AM 36.1440 -97.3950 266° West 421 484 38,000  Level FlightAware ADS-B
Tue 09:30:47 AM 36.1400 -97.4980 267° West 419 482 38,000  Level FlightAware ADS-B
Tue 09:31:32 AM 36.1360 -97.5980 267° West 417 480 38,000  Level FlightAware ADS-B
Tue 09:32:12 AM 36.1310 -97.7010 267° West 416 479 38,000  Level FlightAware ADS-B
Tue 09:32:47 AM 36.1270 -97.7740 266° West 415 478 38,000  Level FlightAware ADS-B
Tue 09:33:37 AM 36.1190 -97.8990 266° West 412 474 38,000  Level FlightAware ADS-B
Tue 09:34:12 AM 36.1040 -97.9820 257° West 411 473 38,000  Level FlightAware ADS-B
Tue 09:35:02 AM 36.0850 -98.0860 257° West 410 472 38,000  Level FlightAware ADS-B
Tue 09:35:42 AM 36.0680 -98.1870 258° West 410 472 38,000  Level FlightAware ADS-B
Tue 09:36:22 AM 36.0530 -98.2680 257° West 410 472 38,000  Level FlightAware ADS-B
Tue 09:37:02 AM 36.0390 -98.3460 258° West 410 472 38,000  Level FlightAware ADS-B
Tue 09:37:42 AM 36.0240 -98.4230 256° West 410 472 38,000  Level FlightAware ADS-B
Tue 09:38:27 AM 36.0040 -98.5560 260° West 412 474 38,000  Level FlightAware ADS-B
Tue 09:39:07 AM 35.9920 -98.6520 261° West 408 470 38,000  Level FlightAware ADS-B
Tue 09:39:52 AM 35.9800 -98.7480 261° West 408 470 38,000  Level FlightAware ADS-B
Tue 09:40:32 AM 35.9700 -98.8260 261° West 408 470 38,000  Level FlightAware ADS-B
Tue 09:41:12 AM 35.9600 -98.9040 261° West 408 470 38,000  Level FlightAware ADS-B
Tue 09:42:02 AM 35.9470 -99.0020 261° West 408 470 38,000  Level FlightAware ADS-B
Tue 09:42:42 AM 35.9370 -99.0800 261° West 408 470 38,000  Level FlightAware ADS-B
Tue 09:43:22 AM 35.9270 -99.1590 261° West 408 470 38,000  Level FlightAware ADS-B
Tue 09:44:02 AM 35.9170 -99.2370 261° West 408 470 38,000  Level FlightAware ADS-B
Tue 09:44:42 AM 35.9070 -99.3150 261° West 408 470 38,000  Level FlightAware ADS-B
Tue 09:45:32 AM 35.8940 -99.4130 261° West 408 470 38,000  Level FlightAware ADS-B
Tue 09:46:12 AM 35.8840 -99.4910 261° West 408 470 38,000  Level FlightAware ADS-B
Tue 09:46:52 AM 35.8740 -99.5690 261° West 408 470 38,000  Level FlightAware ADS-B
Tue 09:47:32 AM 35.8640 -99.6480 261° West 408 470 38,000  Level FlightAware ADS-B
Tue 09:48:22 AM 35.8520 -99.7450 261° West 408 470 38,000  Level FlightAware ADS-B
Tue 09:49:02 AM 35.8420 -99.8240 261° West 408 470 38,000  Level FlightAware ADS-B
Tue 09:49:36 AM 35.9306 -100.0350 261° West 377 434 38,000  Level Kansas City Center
Tue 09:50:38 AM 35.9267 -100.1633 268° West 377 434 38,000  Level Kansas City Center
Tue 09:51:40 AM 35.9225 -100.2933 268° West 379 436 38,000  Level Kansas City Center
Tue 09:52:42 AM 35.9175 -100.4244 267° West 384 442 38,000  Level Kansas City Center
Tue 09:53:43 AM 35.9133 -100.5553 268° West 382 440 38,000  Level Albuquerque Center
Tue 09:54:44 AM 35.9086 -100.6839 267° West 379 436 38,000  Level Albuquerque Center
Tue 09:55:46 AM 35.9025 -100.8383 267° West 378 435 38,000  Level Albuquerque Center
Tue 09:56:47 AM 35.8978 -100.9678 267° West 379 436 38,000  Level Albuquerque Center
Tue 09:57:48 AM 35.8917 -101.0947 267° West 376 433 38,000  Level Albuquerque Center
Tue 09:58:50 AM 35.8872 -101.2239 268° West 379 436 38,000  Level Albuquerque Center
Tue 09:59:51 AM 35.8814 -101.3536 267° West 379 436 38,000  Level Albuquerque Center
Tue 10:00:53 AM 35.8767 -101.4831 267° West 381 438 38,000  Level Albuquerque Center
Tue 10:01:54 AM 35.8700 -101.6133 266° West 382 440 38,000  Level Albuquerque Center
Tue 10:02:56 AM 35.8625 -101.7697 267° West 384 442 38,000  Level Albuquerque Center
Tue 10:03:57 AM 35.8567 -101.9011 267° West 386 444 38,000  Level Albuquerque Center
Tue 10:04:59 AM 35.8506 -102.0308 267° West 384 442 38,000  Level Albuquerque Center
Tue 10:06:00 AM 35.8433 -102.1608 266° West 384 442 38,000  Level Albuquerque Center
Tue 10:07:02 AM 35.8369 -102.2922 267° West 385 443 38,000  Level Albuquerque Center
Tue 10:08:03 AM 35.8292 -102.4228 266° West 385 443 38,000  Level Albuquerque Center
Tue 10:09:05 AM 35.8231 -102.5542 267° West 386 444 38,000  Level Albuquerque Center
Tue 10:10:06 AM 35.8142 -102.7114 266° West 385 443 38,000  Level Albuquerque Center
Tue 10:11:08 AM 35.8067 -102.8422 266° West 386 444 38,000  Level Albuquerque Center
Tue 10:12:10 AM 35.8006 -102.9789 267° West 384 442 38,000  Level Albuquerque Center
Tue 10:13:11 AM 35.7928 -103.1103 266° West 383 441 38,000  Level Albuquerque Center
Tue 10:14:13 AM 35.7853 -103.2417 266° West 383 441 38,000  Level Albuquerque Center
Tue 10:15:14 AM 35.7775 -103.3728 266° West 382 440 38,000  Level Albuquerque Center
Tue 10:16:16 AM 35.7694 -103.5050 266° West 385 443 38,000  Level Albuquerque Center
Tue 10:17:17 AM 35.7603 -103.6386 265° West 389 448 38,000  Level Albuquerque Center
Tue 10:18:19 AM 35.7522 -103.7739 266° West 392 451 38,000  Level Albuquerque Center
Tue 10:19:21 AM 35.7442 -103.9081 266° West 393 452 38,000  Level Albuquerque Center
Tue 10:20:22 AM 35.7333 -104.0664 265° West 396 456 38,000  Level Albuquerque Center
Tue 10:21:24 AM 35.7233 -104.2011 265° West 395 455 38,000  Level Albuquerque Center
Tue 10:22:26 AM 35.7156 -104.3350 266° West 393 452 38,000  Level Albuquerque Center
Tue 10:23:27 AM 35.7053 -104.4708 265° West 396 456 38,000  Level Albuquerque Center
Tue 10:24:29 AM 35.6961 -104.6064 265° West 397 457 38,000  Level Albuquerque Center
Tue 10:25:31 AM 35.6861 -104.7431 265° West 398 458 38,000  Level Albuquerque Center
Tue 10:26:32 AM 35.6761 -104.8786 265° West 397 457 38,000  Level Albuquerque Center
Tue 10:27:34 AM 35.6658 -105.0142 265° West 397 457 38,000  Level Albuquerque Center
Tue 10:28:36 AM 35.6539 -105.1731 265° West 398 458 38,000  Level Albuquerque Center
Tue 10:34:32 AM 35.5770 -105.9750 265° West 402 463 38,000  Level FlightAware ADS-B
Tue 10:35:12 AM 35.5680 -106.0620 263° West 400 460 38,000  Level FlightAware ADS-B
Tue 10:35:57 AM 35.5580 -106.1680 263° West 401 461 38,000  Level FlightAware ADS-B
Tue 10:36:37 AM 35.5490 -106.2550 263° West 400 460 38,000  Level FlightAware ADS-B
Tue 10:37:17 AM 35.5390 -106.3480 262° West 399 459 38,000  Level FlightAware ADS-B
Tue 10:38:02 AM 35.5290 -106.4480 263° West 400 460 38,000  Level FlightAware ADS-B
Tue 10:38:42 AM 35.5200 -106.5380 263° West 401 461 38,000  Level FlightAware ADS-B
Tue 10:39:27 AM 35.5090 -106.6410 263° West 401 461 38,000  Level FlightAware ADS-B
Tue 10:40:07 AM 35.5000 -106.7300 263° West 402 463 38,000  Level FlightAware ADS-B
Tue 10:40:52 AM 35.4890 -106.8320 262° West 402 463 38,000  Level FlightAware ADS-B
Tue 10:41:32 AM 35.4790 -106.9220 262° West 402 463 38,000  Level FlightAware ADS-B
Tue 10:42:17 AM 35.4680 -107.0240 262° West 403 464 38,000  Level FlightAware ADS-B
Tue 10:42:57 AM 35.4580 -107.1140 262° West 402 463 38,000  Level FlightAware ADS-B
Tue 10:43:37 AM 35.4460 -107.2040 261° West 398 458 38,000  Level FlightAware ADS-B
Tue 10:44:22 AM 35.4160 -107.2950 248° West 395 455 38,000  Level FlightAware ADS-B
Tue 10:45:02 AM 35.3880 -107.3760 247° West 393 452 38,000  Level FlightAware ADS-B
Tue 10:45:47 AM 35.3550 -107.4720 247° West 391 450 38,000  Level FlightAware ADS-B
Tue 10:46:27 AM 35.3270 -107.5530 247° West 390 449 38,000  Level FlightAware ADS-B
Tue 10:47:07 AM 35.2990 -107.6340 247° West 390 449 38,000  Level FlightAware ADS-B
Tue 10:47:52 AM 35.2680 -107.7240 247° West 390 449 38,000  Level FlightAware ADS-B
Tue 10:48:27 AM 35.2450 -107.7950 248° West 391 450 38,000  Level FlightAware ADS-B
Tue 10:49:12 AM 35.2160 -107.8800 247° West 392 451 38,000  Level FlightAware ADS-B
Tue 10:50:12 AM 35.1730 -108.0100 248° West 394 453 38,000  Level FlightAware ADS-B
Tue 10:50:52 AM 35.1460 -108.0930 248° West 394 453 38,000  Level FlightAware ADS-B
Tue 10:51:32 AM 35.1290 -108.1780 256° West 395 455 38,000  Level FlightAware ADS-B
Tue 10:52:17 AM 35.1200 -108.2810 264° West 396 456 38,000  Level FlightAware ADS-B
Tue 10:52:57 AM 35.1130 -108.3670 264° West 398 458 38,000  Level FlightAware ADS-B
Tue 10:53:42 AM 35.1050 -108.4670 264° West 398 458 38,000  Level FlightAware ADS-B
Tue 10:54:22 AM 35.0970 -108.5580 264° West 398 458 38,000  Level FlightAware ADS-B
Tue 10:55:02 AM 35.0900 -108.6440 264° West 399 459 38,000  Level FlightAware ADS-B
Tue 10:55:47 AM 35.0810 -108.7480 264° West 399 459 38,000  Level FlightAware ADS-B
Tue 10:56:27 AM 35.0740 -108.8380 265° West 398 458 38,000  Level FlightAware ADS-B
Tue 10:57:07 AM 35.0660 -108.9230 263° West 399 459 38,000  Level FlightAware ADS-B
Tue 10:57:52 AM 35.0570 -109.0260 264° West 394 453 38,000  Level FlightAware ADS-B
Tue 10:58:32 AM 35.0490 -109.1140 264° West 393 452 38,000  Level FlightAware ADS-B
Tue 10:59:17 AM 35.0400 -109.2160 264° West 393 452 38,000  Level FlightAware ADS-B
Tue 10:59:57 AM 35.0330 -109.3030 264° West 392 451 38,000  Level FlightAware ADS-B
Tue 11:00:42 AM 35.0240 -109.3990 263° West 391 450 38,000  Level FlightAware ADS-B
Tue 11:01:22 AM 35.0160 -109.4870 264° West 389 448 38,000  Level FlightAware ADS-B
Tue 11:02:07 AM 35.0060 -109.5880 263° West 388 447 38,000  Level FlightAware ADS-B
Tue 11:02:37 AM 35.0010 -109.6470 264° West 388 447 38,000  Level FlightAware ADS-B
Tue 11:03:22 AM 34.9920 -109.7470 264° West 388 447 38,000  Level FlightAware ADS-B
Tue 11:04:02 AM 34.9830 -109.8340 263° West 388 447 38,000  Level FlightAware ADS-B
Tue 11:04:42 AM 34.9750 -109.9210 264° West 388 447 38,000  Level FlightAware ADS-B
Tue 11:05:27 AM 34.9660 -110.0220 264° West 387 445 38,000  Level FlightAware ADS-B
Tue 11:06:07 AM 34.9570 -110.1080 263° West 386 444 38,000  Level FlightAware ADS-B
Tue 11:06:52 AM 34.9480 -110.2030 263° West 387 445 38,000  Level FlightAware ADS-B
Tue 11:07:32 AM 34.9400 -110.2900 264° West 386 444 38,000  Level FlightAware ADS-B
Tue 11:08:17 AM 34.9310 -110.3820 263° West 383 441 38,000  Level FlightAware ADS-B
Tue 11:08:57 AM 34.9210 -110.4720 262° West 382 440 38,000  Level FlightAware ADS-B
Tue 11:09:37 AM 34.9120 -110.5600 263° West 381 438 38,000  Level FlightAware ADS-B
Tue 11:10:22 AM 34.9030 -110.6530 263° West 379 436 38,000  Level FlightAware ADS-B
Tue 11:11:02 AM 34.8950 -110.7370 263° West 376 433 38,000  Level FlightAware ADS-B
Tue 11:11:47 AM 34.8850 -110.8330 263° West 374 430 38,000  Level FlightAware ADS-B
Tue 11:12:27 AM 34.8760 -110.9170 263° West 374 430 38,000  Level FlightAware ADS-B
Tue 11:13:07 AM 34.8680 -110.9990 263° West 376 433 38,000  Level FlightAware ADS-B
Tue 11:13:52 AM 34.8580 -111.0930 263° West 377 434 38,000  Level FlightAware ADS-B
Tue 11:14:32 AM 34.8490 -111.1750 262° West 378 435 38,000  Level FlightAware ADS-B
Tue 11:15:17 AM 34.8390 -111.2740 263° West 378 435 38,000  Level FlightAware ADS-B
Tue 11:15:57 AM 34.8300 -111.3570 262° West 378 435 38,000  Level FlightAware ADS-B
Tue 11:16:37 AM 34.8210 -111.4380 262° West 381 438 38,000  Level FlightAware ADS-B
Tue 11:17:22 AM 34.8100 -111.5380 262° West 383 441 38,000  Level FlightAware ADS-B
Tue 11:18:02 AM 34.8010 -111.6230 263° West 384 442 38,000  Level FlightAware ADS-B
Tue 11:18:47 AM 34.7900 -111.7180 262° West 384 442 38,000  Level FlightAware ADS-B
Tue 11:19:27 AM 34.7810 -111.8020 263° West 380 437 38,000  Level FlightAware ADS-B
Tue 11:20:07 AM 34.7710 -111.8870 262° West 378 435 38,000  Level FlightAware ADS-B
Tue 11:20:52 AM 34.7610 -111.9840 263° West 377 434 38,000  Level FlightAware ADS-B
Tue 11:21:32 AM 34.7510 -112.0680 262° West 376 433 38,000  Level FlightAware ADS-B
Tue 11:22:17 AM 34.7410 -112.1600 262° West 375 432 38,000  Level FlightAware ADS-B
Tue 11:22:57 AM 34.7310 -112.2430 262° West 373 429 38,000  Level FlightAware ADS-B
Tue 11:23:42 AM 34.7200 -112.3390 262° West 373 429 38,000  Level FlightAware ADS-B
Tue 11:24:22 AM 34.7110 -112.4210 262° West 373 429 38,000  Level FlightAware ADS-B
Tue 11:25:02 AM 34.7010 -112.5040 262° West 372 428 38,000  Level FlightAware ADS-B
Tue 11:25:47 AM 34.6900 -112.5950 262° West 372 428 38,000  Level FlightAware ADS-B
Tue 11:26:27 AM 34.6800 -112.6770 262° West 370 426 38,000  Level FlightAware ADS-B
Tue 11:27:07 AM 34.6710 -112.7580 262° West 372 428 38,000  Level FlightAware ADS-B
Tue 11:27:52 AM 34.6590 -112.8550 261° West 372 428 38,000  Level FlightAware ADS-B
Tue 11:28:32 AM 34.6490 -112.9380 262° West 372 428 38,000  Level FlightAware ADS-B
Tue 11:29:12 AM 34.6390 -113.0200 262° West 374 430 38,000  Level FlightAware ADS-B
Tue 11:29:57 AM 34.6280 -113.1100 262° West 372 428 38,000  Level FlightAware ADS-B
Tue 11:30:37 AM 34.6180 -113.1940 262° West 372 428 38,000  Level FlightAware ADS-B
Tue 11:31:22 AM 34.6060 -113.2880 261° West 372 428 38,000  Level FlightAware ADS-B
Tue 11:32:07 AM 34.5950 -113.3790 262° West 370 426 38,000  Level FlightAware ADS-B
Tue 11:32:47 AM 34.5850 -113.4600 261° West 369 425 38,000  Level FlightAware ADS-B
Tue 11:33:27 AM 34.5750 -113.5420 262° West 367 422 38,000  Level FlightAware ADS-B
Tue 11:34:12 AM 34.5620 -113.6350 260° West 368 423 38,000  Level FlightAware ADS-B
Tue 11:34:52 AM 34.5480 -113.7160 258° West 370 426 38,000  Level FlightAware ADS-B
Tue 11:35:37 AM 34.5330 -113.8070 259° West 368 423 38,000  Level FlightAware ADS-B
Tue 11:36:17 AM 34.5210 -113.8860 260° West 368 423 38,000  Level FlightAware ADS-B
Tue 11:36:57 AM 34.5080 -113.9680 259° West 367 422 38,000  Level FlightAware ADS-B
Tue 11:37:42 AM 34.4930 -114.0570 258° West 365 420 38,000  Level FlightAware ADS-B
Tue 11:38:22 AM 34.4790 -114.1400 258° West 363 418 38,000  Level FlightAware ADS-B
Tue 11:39:02 AM 34.4660 -114.2190 259° West 362 417 38,000  Level FlightAware ADS-B
Tue 11:39:47 AM 34.4530 -114.3040 260° West 363 418 38,000  Level FlightAware ADS-B
Tue 11:40:27 AM 34.4390 -114.3860 258° West 363 418 38,000  Level FlightAware ADS-B
Tue 11:41:27 AM 34.4190 -114.5060 259° West 375 432 38,000  Level FlightAware ADS-B
Tue 11:42:07 AM 34.4040 -114.5930 258° West 378 435 38,000  Level FlightAware ADS-B
Tue 11:42:42 AM 34.3930 -114.6610 259° West 379 436 38,000  Level FlightAware ADS-B
Tue 11:43:32 AM 34.3750 -114.7670 258° West 382 440 38,000  Level FlightAware ADS-B
Tue 11:44:12 AM 34.3610 -114.8510 259° West 382 440 38,000  Level FlightAware ADS-B
Tue 11:44:52 AM 34.3470 -114.9350 259° West 383 441 38,000  Level FlightAware ADS-B
Tue 11:45:32 AM 34.3330 -115.0160 258° West 386 444 38,000  Level FlightAware ADS-B
Tue 11:46:17 AM 34.3160 -115.1150 258° West 388 447 38,000  Level FlightAware ADS-B
Tue 11:47:02 AM 34.2990 -115.2100 258° West 390 449 38,000  Level FlightAware ADS-B
Tue 11:47:42 AM 34.2850 -115.2950 259° West 390 449 38,000  Level FlightAware ADS-B
Tue 11:48:22 AM 34.2700 -115.3790 258° West 384 442 38,000  Level FlightAware ADS-B
Tue 11:49:07 AM 34.2530 -115.4750 258° West 382 440 38,000  Level FlightAware ADS-B
Tue 11:49:42 AM 34.2410 -115.5450 258° West 380 437 38,000  Level FlightAware ADS-B
Tue 11:50:32 AM 34.2240 -115.6420 258° West 372 428 38,000  Level FlightAware ADS-B
Tue 11:51:12 AM 34.2090 -115.7240 258° West 373 429 38,000  Level FlightAware ADS-B
Tue 11:52:07 AM 34.1890 -115.8380 258° West 374 430 38,000  Level FlightAware ADS-B
Tue 11:52:52 AM 34.1720 -115.9340 258° West 377 434 38,000  Level FlightAware ADS-B
Tue 11:53:32 AM 34.1570 -116.0140 257° West 378 435 38,000 -300 Level FlightAware ADS-B
Tue 11:54:12 AM 34.1420 -116.0970 258° West 370 426 37,600 -1,059 Descending FlightAware ADS-B
Tue 11:54:57 AM 34.1260 -116.1900 258° West 367 422 36,500 -2,047 Descending FlightAware ADS-B
Tue 11:55:37 AM 34.1110 -116.2710 257° West 364 419 34,700 -2,682 Descending FlightAware ADS-B
Tue 11:56:22 AM 34.0960 -116.3530 258° West 357 411 32,700 -2,541 Descending FlightAware ADS-B
Tue 11:57:02 AM 34.0820 -116.4280 257° West 342 394 31,100 -2,550 Descending FlightAware ADS-B
Tue 11:57:42 AM 34.0680 -116.5040 257° West 333 383 29,300 -2,541 Descending FlightAware ADS-B
Tue 11:58:27 AM 34.0530 -116.5860 258° West 319 367 27,500 -2,188 Descending FlightAware ADS-B
Tue 11:59:07 AM 34.0410 -116.6510 257° West 311 358 26,200 -2,047 Descending FlightAware ADS-B
Tue 11:59:52 AM 34.0260 -116.7290 257° West 318 366 24,600 -2,118 Descending FlightAware ADS-B
Tue 12:00:32 PM 34.0130 -116.7990 257° West 314 361 23,200 -2,047 Descending FlightAware ADS-B
Tue 12:01:17 PM 33.9990 -116.8760 258° West 300 345 21,700 -1,976 Descending FlightAware ADS-B
Tue 12:01:57 PM 33.9860 -116.9400 256° West 294 338 20,400 -1,875 Descending FlightAware ADS-B
Tue 12:02:37 PM 33.9750 -117.0010 258° West 296 341 19,200 -1,906 Descending FlightAware ADS-B
Tue 12:03:22 PM 33.9610 -117.0770 257° West 298 343 17,700 -1,765 Descending FlightAware ADS-B
Tue 12:04:02 PM 33.9520 -117.1440 261° West 315 362 16,700 -1,200 Descending FlightAware ADS-B
Tue 12:04:47 PM 33.9450 -117.2220 264° West 320 368 16,000 -847 Descending FlightAware ADS-B
Tue 12:05:27 PM 33.9390 -117.2910 264° West 319 367 15,500 -825 Descending FlightAware ADS-B
Tue 12:06:07 PM 33.9340 -117.3600 265° West 319 367 14,900 -847 Descending FlightAware ADS-B
Tue 12:06:52 PM 33.9560 -117.4420 288° West 324 373 14,300 -988 Descending FlightAware ADS-B
Tue 12:07:32 PM 33.9790 -117.5060 293° West 317 365 13,500 -1,500 Descending FlightAware ADS-B
Tue 12:08:12 PM 34.0010 -117.5700 293° West 301 346 12,300 -1,800 Descending FlightAware ADS-B
Tue 12:08:42 PM 34.0130 -117.6170 287° West 285 328 11,400 -1,760 Descending FlightAware ADS-B
Tue 12:09:27 PM 34.0070 -117.6840 264° West 277 319 10,100 -1,629 Descending FlightAware ADS-B
Tue 12:09:52 PM 34.0030 -117.7250 263° West 281 323 9,500 -1,418 Descending FlightAware ADS-B
Tue 12:10:22 PM 33.9980 -117.7710 263° West 281 323 8,800 -1,418 Descending FlightAware ADS-B
Tue 12:10:47 PM 33.9950 -117.8080 264° West 278 320 8,200 -1,309 Descending FlightAware ADS-B
Tue 12:11:17 PM 33.9900 -117.8540 263° West 273 314 7,600 -1,300 Descending FlightAware ADS-B
Tue 12:11:47 PM 33.9860 -117.8990 264° West 271 312 6,900 -1,309 Descending FlightAware ADS-B
Tue 12:12:12 PM 33.9820 -117.9380 263° West 265 305 6,400 -1,050 Descending FlightAware ADS-B
Tue 12:12:27 PM 33.9800 -117.9590 263° West 265 305 6,200 -933 Descending FlightAware ADS-B
Tue 12:12:57 PM 33.9760 -118.0020 264° West 254 292 5,700 -900 Descending FlightAware ADS-B
Tue 12:13:07 PM 33.9740 -118.0160 260° West 249 287 5,600 -750 Descending FlightAware ADS-B
Tue 12:13:37 PM 33.9700 -118.0560 263° West 236 272 5,200 -900 Descending FlightAware ADS-B
Tue 12:14:07 PM 33.9660 -118.0950 263° West 228 262 4,700 -1,091 Descending FlightAware ADS-B
Tue 12:14:32 PM 33.9640 -118.1250 265° West 223 257 4,200 -1,200 Descending FlightAware ADS-B
Tue 12:15:02 PM 33.9600 -118.1620 263° West 220 253 3,600 -1,091 Descending FlightAware ADS-B
Tue 12:15:27 PM 33.9570 -118.1920 263° West 211 243 3,200 -1,091 Descending FlightAware ADS-B
Tue 12:15:57 PM 33.9530 -118.2270 262° West 205 236 2,600 -1,100 Descending FlightAware ADS-B
Tue 12:16:27 PM 33.9500 -118.2570 263° West 195 224 2,100 -982 Descending FlightAware ADS-B
Tue 12:16:52 PM 33.9470 -118.2820 262° West 188 216 1,700 -1,091 Descending FlightAware ADS-B
Tue 12:17:22 PM 33.9440 -118.3140 264° West 166 191 1,100 -1,080 Descending FlightAware ADS-B
Tue 12:17:42 PM 33.9420 -118.3330 263° West 158 182 800 667 Descending FlightAware ADS-B
Tue 12:18:07 PM 33.9470 -118.2850 83° East 184 212 1,600 960 Climbing FlightAware ADS-B
Tue 12:18:32 PM 33.9450 -118.3090 264° West 184 212 1,600  Level FlightAware ADS-B

Login

Don't have an account? Register now (free) for customized features, flight alerts, and more!